Latest Coastal Weather Observations for Wynyard

IDT60701

Issued at 4:42 am EDT Tuesday 21 January 2020 (issued every 10 minutes, with the page automatically refreshed every 10 minutes)

About coastal observations | Map of coastal stations | Coastal observations for TAS | Marine services | Other Formats
Station Details ID: 091107 Name: WYNYARD AIRPORT Lat: -41.00 Lon: 145.73 Height: 12.0 m
Data from the previous 72 hours. | See also: Recent months at Wynyard
Date/Time
EDT
Wind Sea
Height
m
Swell Vis
km
Cloud Weather Temp
°C
Press
hPa
Rain since
9am
mm
Dir  Spd
kts
Gust
kts
Height
m
Period
s
Dir
21/04:30am WNW 6 7 - - - - 10 Clear - 13.4 1003.3 9.0
21/04:00am W 5 6 - - - - 10 - - 12.5 1003.1 9.0
21/03:30am W 7 7 - - - - 10 - - 12.3 1003.1 9.0
21/03:00am W 4 5 - - - - 10 - - 13.5 1003.4 9.0
21/02:30am WSW 4 5 - - - - 10 - - 13.6 1003.7 9.0
21/02:00am W 2 4 - - - - 10 Partly cloudy - 15.1 1003.9 9.0
21/01:30am SSW 3 4 - - - - 10 Cloudy - 15.2 1004.1 9.0
21/01:00am S 2 5 - - - - 10 Partly cloudy - 15.7 1004.1 9.0
21/12:30am W 4 5 - - - - 10 - - 16.1 1003.9 9.0
21/12:00am W 3 4 - - - - 9 Partly cloudy - 16.6 1003.9 9.0
 
Date/Time
EDT
Wind Sea
Height
m
Swell Vis
km
Cloud Weather Temp
°C
Press
hPa
Rain since
9am
mm
Dir  Spd
kts
Gust
kts
Height
m
Period
s
Dir
20/11:30pm W 4 5 - - - - 10 Cloudy - 16.9 1003.9 9.0
20/11:00pm SSW 5 5 - - - - 10 Partly cloudy - 17.2 1003.9 9.0
20/10:30pm S 5 7 - - - - 10 Partly cloudy - 17.4 1004.0 9.0
20/10:00pm SW 5 6 - - - - 10 Cloudy - 18.0 1003.9 9.0
20/09:30pm ENE 3 5 - - - - 10 Cloudy - 18.2 1003.9 9.0
20/09:00pm S 5 8 - - - - 8 Cloudy Rain 18.3 1003.8 9.0
20/08:30pm WNW 3 6 - - - - 10 Cloudy - 18.7 1003.4 8.2
20/08:01pm NNW 9 11 - - - - 10 Cloudy - 18.6 1003.2 8.2
20/08:00pm NNW 9 11 - - - - 10 Cloudy - 18.6 1003.2 8.2
20/07:30pm NW 11 15 - - - - 0.7 Partly cloudy - 18.5 1003.1 6.8
20/07:21pm NNW 10 14 - - - - 5 Partly cloudy - 19.0 1003.0 0.8
20/07:00pm NNW 8 12 - - - - 10 Partly cloudy - 20.7 1002.8 0.2
20/06:30pm N 8 10 - - - - 10 Cloudy - 21.6 1002.7 0.2
20/06:00pm N 6 10 - - - - 10 Cloudy - 22.1 1002.6 0.2
20/05:30pm NNE 8 11 - - - - 10 Partly cloudy - 21.9 1002.6 0.2
20/05:00pm NW 7 13 - - - - 10 Partly cloudy - 23.6 1002.9 0.2
20/04:30pm NNW 8 11 - - - - 10 Partly cloudy - 23.5 1003.4 0.2
20/04:00pm NW 10 13 - - - - 10 Partly cloudy - 22.9 1003.8 0.2
20/03:30pm NW 9 13 - - - - 10 Cloudy - 22.5 1004.2 0.2
20/03:00pm NW 9 12 - - - - 10 Cloudy - 22.4 1004.4 0.2
20/02:30pm NNW 10 13 - - - - 10 Partly cloudy - 22.6 1004.8 0.2
20/02:00pm NNW 11 13 - - - - 10 Partly cloudy - 20.7 1005.0 0.2
20/01:30pm WNW 5 7 - - - - 10 Partly cloudy - 22.0 1005.2 0.2
20/01:00pm WNW 4 7 - - - - 10 Cloudy - 21.3 1005.7 0.2
20/12:30pm NNE 3 5 - - - - 10 Partly cloudy - 20.8 1006.0 0.2
20/12:00pm N 3 5 - - - - 10 Mostly cloudy Recent precip. 20.1 1006.3 0.2
20/11:30am S 4 7 - - - - 10 - - 20.2 1006.5 0.2
20/11:00am SSE 3 7 - - - - 10 Partly cloudy - 19.5 1006.9 0.0
20/10:30am SSW 3 6 - - - - 10 Partly cloudy - 17.7 1007.4 0.0
20/10:00am WSW 5 6 - - - - 10 Partly cloudy - 16.9 1007.7 0.0
20/09:30am WSW 5 7 - - - - 10 Cloudy - 16.6 1007.7 0.0
20/09:00am SW 4 5 - - - - 10 Cloudy - 16.2 1007.9 0.4
20/08:30am CALM 0 0 - - - - 10 Cloudy - 15.9 1008.0 0.4
20/08:00am WNW 4 5 - - - - 10 Cloudy - 15.6 1007.9 0.4
20/07:30am NNW 4 4 - - - - 10 Partly cloudy - 15.6 1007.7 0.0
20/07:00am W 5 6 - - - - 10 Partly cloudy - 15.1 1007.6 0.0
20/06:30am W 4 5 - - - - 10 Cloudy - 14.9 1007.7 0.0
20/06:00am W 3 5 - - - - 10 Cloudy - 15.3 1007.7 0.0
20/05:30am W 3 4 - - - - 10 Partly cloudy - 14.9 1007.7 0.0
20/05:00am SW 3 4 - - - - 10 Cloudy - 14.8 1007.8 0.0
20/04:30am CALM 0 0 - - - - 10 Cloudy - 14.7 1008.0 0.0
20/04:00am WSW 2 3 - - - - 10 Cloudy - 14.9 1008.0 0.0
20/03:30am W 4 5 - - - - 10 Cloudy - 15.0 1008.2 0.0
20/03:00am W 4 5 - - - - 10 Cloudy - 14.8 1008.4 0.0
20/02:30am SW 3 4 - - - - 10 Cloudy - 15.0 1008.7 0.0
20/02:00am SSW 5 5 - - - - 10 Partly cloudy - 15.0 1009.0 0.0
20/01:30am CALM 0 3 - - - - 10 Partly cloudy - 15.4 1009.0 0.0
20/01:00am SSW 3 5 - - - - 10 Partly cloudy - 15.7 1009.3 0.0
20/12:30am CALM 0 0 - - - - 10 Partly cloudy - 16.5 1009.6 0.0
20/12:00am ESE 4 5 - - - - 10 Cloudy - 16.9 1009.9 0.0
 
Date/Time
EDT
Wind Sea
Height
m
Swell Vis
km
Cloud Weather Temp
°C
Press
hPa
Rain since
9am
mm
Dir  Spd
kts
Gust
kts
Height
m
Period
s
Dir
19/11:30pm E 4 5 - - - - 10 Cloudy - 17.2 1010.3 0.0
19/11:00pm E 5 7 - - - - 10 Partly cloudy - 17.1 1010.7 0.0
19/10:30pm E 6 8 - - - - 10 Partly cloudy - 17.5 1010.9 0.0
19/10:00pm E 4 7 - - - - 10 Cloudy - 17.6 1010.8 0.0
19/09:30pm ESE 4 5 - - - - 10 Cloudy - 17.7 1010.6 0.0
19/09:00pm E 4 5 - - - - 10 Cloudy - 17.8 1010.4 0.0
19/08:30pm ESE 5 7 - - - - 10 Cloudy - 18.0 1010.0 0.0
19/08:00pm ESE 7 8 - - - - 10 Cloudy - 18.3 1009.4 0.0
19/07:30pm ESE 6 9 - - - - 10 Cloudy - 18.4 1009.0 0.0
19/07:00pm ESE 6 8 - - - - 10 Cloudy - 18.4 1008.8 0.0
19/06:30pm E 5 7 - - - - 10 Partly cloudy - 18.4 1008.6 0.0
19/06:00pm E 6 9 - - - - 10 Mostly cloudy - 18.5 1008.6 0.0
19/05:30pm E 7 11 - - - - 10 Cloudy - 18.4 1008.5 0.0
19/05:00pm E 7 9 - - - - 10 Partly cloudy - 18.9 1008.6 0.0
19/04:30pm E 7 11 - - - - 10 Partly cloudy - 19.1 1008.7 0.0
19/04:00pm ENE 6 9 - - - - 10 Partly cloudy - 18.4 1009.1 0.0
19/03:30pm ENE 7 9 - - - - 10 Cloudy - 18.3 1009.4 0.0
19/03:00pm NE 6 8 - - - - 10 Mostly cloudy - 18.2 1009.8 0.0
19/02:30pm E 9 13 - - - - 10 Cloudy - 19.3 1009.9 0.0
19/02:00pm SE 10 17 - - - - 10 Cloudy - 18.3 1010.4 0.0
19/01:30pm E 8 13 - - - - 10 Cloudy - 17.7 1010.9 0.0
19/01:00pm NE 6 9 - - - - 10 Cloudy - 17.8 1011.1 0.0
19/12:30pm ENE 7 11 - - - - 10 Cloudy - 18.1 1011.1 0.0
19/12:00pm E 8 12 - - - - 10 Cloudy - 18.0 1011.1 0.0
19/11:30am E 9 12 - - - - 10 Cloudy - 17.9 1011.1 0.0
19/11:00am E 9 12 - - - - 10 Cloudy - 17.5 1011.1 0.0
19/10:30am E 10 13 - - - - 10 Cloudy - 17.6 1011.2 0.0
19/10:00am E 10 13 - - - - 10 Cloudy - 17.1 1011.4 0.0
19/09:30am E 9 11 - - - - 10 Cloudy - 17.0 1011.4 0.0
19/09:00am ESE 9 15 - - - - 10 Cloudy - 17.0 1011.5 0.0
19/08:30am SE 9 12 - - - - 10 Cloudy - 16.5 1011.3 0.0
19/08:00am SE 9 12 - - - - 10 Cloudy - 16.3 1011.2 0.0
19/07:30am SE 9 12 - - - - 10 Cloudy - 15.6 1011.2 0.0
19/07:00am ESE 9 13 - - - - 10 Cloudy - 15.3 1011.3 0.0
19/06:30am SE 7 9 - - - - 10 Partly cloudy - 14.8 1011.1 0.0
19/06:00am SE 6 8 - - - - 10 Cloudy - 15.3 1011.0 0.0
19/05:30am ESE 8 11 - - - - 10 Partly cloudy - 15.5 1010.8 0.0
19/05:00am ESE 7 10 - - - - 10 Partly cloudy - 15.7 1010.8 0.0
19/04:30am ESE 7 8 - - - - 10 Partly cloudy - 15.8 1010.6 0.0
19/04:00am ESE 8 11 - - - - 10 Partly cloudy - 16.2 1010.7 0.0
19/03:30am ESE 8 11 - - - - 10 Partly cloudy - 16.1 1010.9 0.0
19/03:00am ESE 9 12 - - - - 10 Cloudy - 16.1 1011.0 0.0
19/02:30am E 13 19 - - - - 10 Cloudy - 16.1 1011.5 0.0
19/02:00am E 14 18 - - - - 10 Partly cloudy - 16.0 1011.8 0.0
19/01:30am E 12 17 - - - - 10 Cloudy - 15.5 1012.3 0.0
19/01:00am ENE 10 14 - - - - 10 Cloudy - 15.6 1012.5 0.0
19/12:30am E 13 18 - - - - 10 Cloudy - 15.9 1012.7 0.0
19/12:00am ENE 13 19 - - - - 10 Mostly cloudy - 16.0 1012.9 0.0
 
Date/Time
EDT
Wind Sea
Height
m
Swell Vis
km
Cloud Weather Temp
°C
Press
hPa
Rain since
9am
mm
Dir  Spd
kts
Gust
kts
Height
m
Period
s
Dir
18/11:30pm E 11 16 - - - - 10 Partly cloudy - 16.1 1013.1 0.0
18/11:00pm ENE 11 19 - - - - 10 Cloudy - 16.2 1013.2 0.0
18/10:30pm ENE 13 20 - - - - 10 Cloudy - 16.1 1012.8 0.0
18/10:00pm E 11 17 - - - - 10 Cloudy - 16.1 1013.0 0.0
18/09:30pm ENE 11 17 - - - - 10 Partly cloudy - 16.3 1012.9 0.0
18/09:00pm ENE 11 17 - - - - 10 Cloudy - 16.3 1012.8 0.0
18/08:30pm ENE 9 15 - - - - 10 Partly cloudy - 16.3 1012.8 0.0
18/08:00pm ENE 10 15 - - - - 10 Partly cloudy - 16.3 1012.7 0.0
18/07:30pm ENE 9 15 - - - - 10 Cloudy - 16.7 1012.6 0.0
18/07:00pm E 11 15 - - - - 10 Cloudy - 16.5 1012.7 0.0
18/06:30pm E 10 15 - - - - 10 Cloudy - 16.8 1012.6 0.0
18/06:00pm E 11 16 - - - - 10 Cloudy - 16.7 1012.6 0.0
18/05:30pm E 12 17 - - - - 10 Cloudy - 16.7 1012.9 0.0
18/05:00pm ENE 12 17 - - - - 10 Cloudy - 17.0 1012.9 0.0
18/04:30pm ENE 11 17 - - - - 10 Cloudy - 17.2 1013.2 0.0
18/04:00pm ENE 11 16 - - - - 10 Cloudy - 16.7 1013.6 0.0
18/03:30pm ENE 11 16 - - - - 10 Cloudy - 16.6 1013.7 0.0
18/03:00pm ENE 10 14 - - - - 10 Cloudy - 16.6 1013.8 0.0
18/02:30pm ENE 11 16 - - - - 10 Cloudy - 16.5 1013.9 0.0
18/02:00pm ENE 11 16 - - - - 10 Cloudy - 16.6 1014.2 0.0
18/01:30pm ENE 11 18 - - - - 10 Cloudy - 16.7 1014.5 0.0
18/01:00pm ENE 12 19 - - - - 10 Cloudy - 16.9 1014.8 0.0
18/12:30pm ENE 13 19 - - - - 10 Cloudy - 16.6 1015.2 0.0
18/12:00pm ENE 13 20 - - - - 10 Cloudy - 16.4 1015.5 0.0
18/11:30am E 17 22 - - - - 10 Cloudy - 16.5 1015.6 0.0
18/11:00am E 17 27 - - - - 10 Cloudy - 15.4 1016.0 0.0
18/10:58am E 17 27 - - - - 10 Cloudy - 15.5 1016.0 0.0
18/10:30am E 18 23 - - - - 10 Partly cloudy - 16.0 1016.2 0.0
18/10:00am E 16 20 - - - - 10 Cloudy - 15.7 1016.7 0.0
18/09:30am E 16 23 - - - - 10 Partly cloudy - 15.4 1016.9 0.0
18/09:00am ESE 13 18 - - - - 10 Cloudy - 15.1 1017.2 0.0
18/08:30am ESE 12 17 - - - - 10 Partly cloudy - 14.6 1017.2 0.0
18/08:00am ESE 9 13 - - - - 10 Cloudy - 13.4 1017.3 0.0
18/07:30am SE 8 10 - - - - 10 Cloudy - 12.6 1017.3 0.0
18/07:00am SE 7 10 - - - - 10 Cloudy - 11.9 1017.2 0.0
18/06:30am SE 8 10 - - - - 10 Partly cloudy - 11.2 1016.9 0.0
18/06:00am SE 7 10 - - - - 10 - - 10.9 1016.7 0.0
18/05:30am ESE 10 14 - - - - 10 - - 11.7 1016.1 0.0
18/05:00am ESE 12 17 - - - - 10 Partly cloudy - 12.4 1016.1 0.0

Other formats

Comma delimited format used in spreadsheet applications
http://www.bom.gov.au/fwo/IDT60701/IDT60701.95957.axf

JavaScript Object Notation format (JSON) in row-major order
http://www.bom.gov.au/fwo/IDT60701/IDT60701.95957.json

Data quality

Most of these data are generated automatically and are frequently updated. Quality checks on data are not normally performed. It is possible for incorrect values to appear. Refer to information at About Latest Weather Observations and please check the disclaimer before using these data.